Time;durP1;ratioP1;P1;durP2;ratioP2;P2;SDS_P1;SDS_P2;PMS_P1;PMS_P2;Temp;Humidity;BMP_temperature;BMP_pressure;BME280_temperature;BME280_humidity;BME280_pressure;Samples;Min_cycle;Max_cycle;Signal;HPM_P1;HPM_P2
2023/05/04 00:00:15;;;;;;;4.80;1.10;;;;;;;18.62;48.40;101224.91;2101964;28;20575;-74
2023/05/04 00:01:38;;;;;;;3.25;1.23;;;;;;;18.60;48.34;101224.91;2093416;28;20086;-74
2023/05/04 00:03:00;;;;;;;3.00;1.10;;;;;;;18.60;47.47;101219.56;2100535;28;20152;-75
2023/05/04 00:04:21;;;;;;;3.97;1.27;;;;;;;18.60;47.24;101216.88;2102538;28;20055;-74
2023/05/04 00:05:45;;;;;;;6.60;1.63;;;;;;;18.63;51.40;101227.56;2101282;28;20059;-74
2023/05/04 00:07:06;;;;;;;4.80;1.60;;;;;;;18.62;58.68;101225.78;2102043;28;20052;-73
2023/05/04 00:08:29;;;;;;;5.57;1.63;;;;;;;18.63;64.29;101222.22;2099732;28;20128;-74
2023/05/04 00:09:51;;;;;;;4.10;2.00;;;;;;;18.63;67.15;101215.97;2096571;28;20040;-74
2023/05/04 00:11:14;;;;;;;4.10;1.30;;;;;;;18.61;68.98;101202.59;2088836;28;20609;-74
2023/05/04 00:12:36;;;;;;;7.63;1.85;;;;;;;18.59;69.33;101201.72;2098695;28;20032;-74
2023/05/04 00:13:58;;;;;;;4.80;1.55;;;;;;;18.55;68.72;101191.97;2102828;28;20093;-73
2023/05/04 00:15:20;;;;;;;5.07;1.45;;;;;;;18.52;69.75;101197.31;2108709;28;20059;-74
2023/05/04 00:16:43;;;;;;;4.75;1.58;;;;;;;18.48;70.92;101200.03;2103786;28;20043;-74
2023/05/04 00:18:06;;;;;;;5.88;1.70;;;;;;;18.45;71.98;101189.34;2101903;28;20524;-73
2023/05/04 00:19:27;;;;;;;5.93;1.60;;;;;;;18.41;73.97;101183.16;2100140;28;20507;-73
2023/05/04 00:20:51;;;;;;;3.78;1.50;;;;;;;18.40;76.17;101188.53;2092758;28;20052;-74
2023/05/04 00:22:12;;;;;;;3.60;1.50;;;;;;;18.37;77.40;101191.25;2100674;28;20048;-74
2023/05/04 00:23:34;;;;;;;6.55;1.90;;;;;;;18.35;78.37;101179.66;2102052;28;20048;-74
2023/05/04 00:24:56;;;;;;;3.63;1.20;;;;;;;18.36;78.94;101185.00;2100448;28;20032;-73
2023/05/04 00:26:18;;;;;;;3.67;1.45;;;;;;;18.37;79.50;101177.88;2096023;28;20041;-73
2023/05/04 00:27:40;;;;;;;3.38;1.73;;;;;;;18.38;80.12;101183.19;2094581;28;20061;-73
2023/05/04 00:29:02;;;;;;;3.97;1.63;;;;;;;18.41;82.40;101180.50;2094159;28;20409;-73
2023/05/04 00:30:24;;;;;;;5.35;1.90;;;;;;;18.44;83.71;101179.59;2108562;28;20139;-74
2023/05/04 00:31:46;;;;;;;7.55;1.73;;;;;;;18.46;85.12;101180.44;2094790;28;20052;-74
2023/05/04 00:33:09;;;;;;;6.68;2.03;;;;;;;18.44;86.05;101172.47;2097992;28;20048;-73
2023/05/04 00:34:32;;;;;;;3.05;1.48;;;;;;;18.44;87.21;101182.25;2094515;28;20072;-73
2023/05/04 00:35:56;;;;;;;4.95;1.60;;;;;;;18.42;86.20;101197.44;2090949;28;20497;-74
2023/05/04 00:37:19;;;;;;;5.40;1.92;;;;;;;18.38;84.92;101193.03;2100177;28;20036;-74
2023/05/04 00:38:52;;;;;;;6.43;2.25;;;;;;;18.36;87.94;101190.34;2097164;28;20048;-73
2023/05/04 00:40:13;;;;;;;5.25;2.00;;;;;;;18.32;89.37;101189.47;2101288;28;20433;-74
2023/05/04 00:41:35;;;;;;;5.40;1.90;;;;;;;18.28;90.72;101177.06;2100155;28;20439;-74
2023/05/04 00:42:57;;;;;;;7.35;1.92;;;;;;;18.27;91.79;101179.72;2094481;28;20052;-74
2023/05/04 00:44:22;;;;;;;6.90;2.83;;;;;;;18.25;92.90;101171.72;2102295;28;20074;-73
2023/05/04 00:45:44;;;;;;;5.93;2.10;;;;;;;18.23;93.59;101175.34;2097143;28;20448;-73
2023/05/04 00:47:07;;;;;;;8.70;2.08;;;;;;;18.20;94.33;101175.34;2102241;28;20109;-73
2023/05/04 00:48:29;;;;;;;4.68;1.70;;;;;;;18.17;93.95;101170.94;2088589;28;20143;-73
2023/05/04 00:49:51;;;;;;;5.60;1.75;;;;;;;18.17;93.92;101173.59;2093129;28;20053;-73
2023/05/04 00:51:18;;;;;;;4.85;1.92;;;;;;;18.14;95.44;101172.72;2093579;28;20036;-73
2023/05/04 00:52:40;;;;;;;6.97;1.90;;;;;;;18.09;95.30;101175.44;2090339;28;20514;-72
2023/05/04 00:54:03;;;;;;;5.22;1.65;;;;;;;18.03;94.64;101164.81;2100072;28;20052;-73
2023/05/04 00:55:25;;;;;;;3.22;1.70;;;;;;;18.01;94.72;101163.03;2101001;28;20353;-73
2023/05/04 00:56:47;;;;;;;;;;;;;;;17.93;94.56;101147.97;2103051;28;20068;-73
2023/05/04 00:58:10;;;;;;;6.55;1.95;;;;;;;17.88;94.91;101138.22;2095511;28;19951;-73
2023/05/04 00:59:31;;;;;;;5.45;1.75;;;;;;;17.87;95.55;101139.13;2101350;28;20051;-73
2023/05/04 01:00:53;;;;;;;5.78;2.15;;;;;;;17.85;95.88;101130.25;2089788;28;20098;-73
2023/05/04 01:02:16;;;;;;;5.50;2.00;;;;;;;17.83;95.09;101124.91;2099755;28;20055;-72
2023/05/04 01:03:38;;;;;;;6.72;1.50;;;;;;;17.76;92.98;101125.84;2089001;28;20044;-72
2023/05/04 01:05:00;;;;;;;3.75;1.52;;;;;;;17.72;91.40;101129.44;2090883;28;20512;-72
2023/05/04 01:06:35;;;;;;;4.63;1.27;;;;;;;17.72;91.45;101140.13;2087826;28;20086;-72
2023/05/04 01:08:03;;;;;;;3.60;1.48;;;;;;;17.69;91.23;101136.59;2100568;28;20044;-72
2023/05/04 01:09:35;;;;;;;4.63;1.33;;;;;;;17.68;89.64;101142.81;2100925;28;20060;-74
2023/05/04 01:11:01;;;;;;;7.95;2.05;;;;;;;17.64;91.29;101138.41;2097803;28;20052;-73
2023/05/04 01:12:34;;;;;;;6.80;1.83;;;;;;;17.60;94.60;101123.25;2094994;28;20408;-73
2023/05/04 01:13:56;;;;;;;6.47;2.03;;;;;;;17.58;96.90;101131.31;2092496;28;20043;-74
2023/05/04 01:15:18;;;;;;;6.20;1.90;;;;;;;17.52;99.01;101139.38;2099543;28;20079;-74
2023/05/04 01:16:40;;;;;;;6.43;2.10;;;;;;;17.46;99.18;101144.72;2088677;28;20053;-73
2023/05/04 01:18:03;;;;;;;5.35;2.10;;;;;;;17.45;99.71;101149.19;2095620;28;20044;-74
2023/05/04 01:19:27;;;;;;;6.22;1.75;;;;;;;17.44;100.00;101147.41;2100678;28;20081;-73
2023/05/04 01:20:50;;;;;;;6.05;1.50;;;;;;;17.39;100.00;101138.53;2096940;28;20132;-73
2023/05/04 01:22:14;;;;;;;5.32;1.60;;;;;;;17.37;100.00;101148.34;2093774;28;20107;-73
2023/05/04 01:23:35;;;;;;;3.28;1.58;;;;;;;17.34;99.77;101145.69;2101593;28;20054;-74
2023/05/04 01:24:58;;;;;;;3.72;1.40;;;;;;;17.28;97.69;101144.84;2102324;28;20071;-74
2023/05/04 01:26:24;;;;;;;4.45;1.50;;;;;;;17.23;96.18;101134.19;2102004;28;20051;-74
2023/05/04 01:27:56;;;;;;;4.50;1.52;;;;;;;17.20;95.42;101136.88;2094721;28;20566;-74
2023/05/04 01:29:29;;;;;;;3.53;1.60;;;;;;;17.19;95.12;101129.78;2095658;28;20049;-74
2023/05/04 01:30:56;;;;;;;5.85;1.60;;;;;;;17.22;95.00;101134.19;2101829;28;20097;-73
2023/05/04 01:32:19;;;;;;;4.32;1.60;;;;;;;17.23;96.15;101127.97;2096602;28;20048;-74
2023/05/04 01:33:41;;;;;;;4.45;1.50;;;;;;;17.20;96.64;101126.19;2095388;28;20560;-74
2023/05/04 01:35:04;;;;;;;4.72;1.90;;;;;;;17.12;97.53;101133.38;2098756;28;20055;-74
2023/05/04 01:36:25;;;;;;;5.18;1.67;;;;;;;17.08;98.19;101134.28;2102320;28;20048;-75
2023/05/04 01:37:49;;;;;;;6.10;2.00;;;;;;;17.08;98.04;101126.25;2102492;28;20079;-74
2023/05/04 01:39:10;;;;;;;5.53;1.90;;;;;;;17.10;97.71;101119.16;2102522;28;20040;-74
2023/05/04 01:40:32;;;;;;;5.18;1.90;;;;;;;17.11;98.51;101120.94;2096456;28;20053;-74
2023/05/04 01:41:54;;;;;;;4.03;1.88;;;;;;;17.10;99.00;101144.06;2094028;28;20044;-74
2023/05/04 01:43:16;;;;;;;7.15;2.03;;;;;;;17.10;99.28;101159.16;2107540;28;20110;-74
2023/05/04 01:44:39;;;;;;;3.60;1.50;;;;;;;17.06;100.00;101166.31;2096357;28;20052;-74
2023/05/04 01:46:00;;;;;;;4.43;2.08;;;;;;;17.02;100.00;101167.19;2102240;28;20133;-74
2023/05/04 01:47:22;;;;;;;5.45;2.25;;;;;;;17.02;100.00;101160.97;2102082;28;20044;-74
2023/05/04 01:48:44;;;;;;;8.55;1.92;;;;;;;17.01;100.00;101157.41;2110661;28;20040;-74
2023/05/04 01:50:07;;;;;;;5.57;2.03;;;;;;;17.03;100.00;101146.75;2096363;28;20563;-73
2023/05/04 01:51:28;;;;;;;6.18;1.95;;;;;;;17.04;100.00;101156.53;2100758;28;20470;-73
2023/05/04 01:52:54;;;;;;;4.90;2.00;;;;;;;17.01;100.00;101153.88;2093833;28;20479;-74
2023/05/04 01:54:16;;;;;;;5.50;2.08;;;;;;;16.95;100.00;101151.22;2093560;28;20060;-73
2023/05/04 01:55:37;;;;;;;4.47;2.03;;;;;;;16.94;100.00;101142.34;2099248;28;20048;-73
2023/05/04 01:57:00;;;;;;;7.20;1.80;;;;;;;16.96;100.00;101145.00;2101752;28;20071;-72
2023/05/04 01:58:22;;;;;;;5.18;1.85;;;;;;;16.95;100.00;101148.56;2094071;28;20048;-73
2023/05/04 01:59:44;;;;;;;7.50;2.40;;;;;;;16.89;100.00;101151.25;2095378;28;20048;-73
2023/05/04 02:01:07;;;;;;;5.00;2.10;;;;;;;16.84;100.00;101148.63;2088019;28;20044;-73
2023/05/04 02:02:28;;;;;;;4.95;1.63;;;;;;;16.77;100.00;101148.63;2094499;28;20052;-73
2023/05/04 02:03:50;;;;;;;5.07;1.63;;;;;;;16.71;100.00;101130.88;2095524;28;20148;-73
2023/05/04 02:05:12;;;;;;;6.90;2.17;;;;;;;16.72;100.00;101125.56;2093854;28;20583;-73
2023/05/04 02:06:34;;;;;;;4.72;1.73;;;;;;;16.77;100.00;101125.53;2098100;28;20048;-73
2023/05/04 02:07:59;;;;;;;5.18;1.95;;;;;;;16.83;100.00;101124.63;2093754;28;20541;-73
2023/05/04 02:09:21;;;;;;;4.47;1.85;;;;;;;16.87;99.83;101131.72;2097199;28;20051;-73
2023/05/04 02:10:43;;;;;;;5.18;1.92;;;;;;;16.87;100.00;101142.41;2101195;28;20106;-73
2023/05/04 02:12:06;;;;;;;6.43;1.50;;;;;;;16.80;100.00;101152.19;2093705;28;20028;-73
2023/05/04 02:13:27;;;;;;;5.25;1.60;;;;;;;16.70;100.00;101148.66;2085280;28;20049;-73
2023/05/04 02:14:49;;;;;;;2.05;1.33;;;;;;;16.64;99.39;101148.69;2092902;28;20067;-73
2023/05/04 02:16:13;;;;;;;4.32;1.55;;;;;;;16.62;98.76;101145.13;2088037;28;20060;-73
2023/05/04 02:17:34;;;;;;;5.93;1.60;;;;;;;16.62;99.85;101162.91;2089571;28;20040;-73
2023/05/04 02:18:58;;;;;;;4.78;1.80;;;;;;;16.60;100.00;101157.59;2098549;28;20078;-73
2023/05/04 02:20:20;;;;;;;5.22;2.25;;;;;;;16.61;100.00;101166.44;2093745;28;20477;-73
2023/05/04 02:21:42;;;;;;;5.18;1.38;;;;;;;16.60;99.68;101162.03;2092030;28;20139;-72
2023/05/04 02:23:06;;;;;;;3.92;1.10;;;;;;;16.56;98.12;101158.44;2096768;28;20072;-73
2023/05/04 02:24:27;;;;;;;3.45;1.40;;;;;;;16.54;95.50;101154.03;2101993;28;20408;-73
2023/05/04 02:25:50;;;;;;;4.10;1.50;;;;;;;16.54;94.23;101162.88;2103673;28;20470;-73
2023/05/04 02:27:12;;;;;;;4.57;1.60;;;;;;;16.56;94.77;101162.88;2088145;28;20525;-73
2023/05/04 02:28:34;;;;;;;6.95;1.75;;;;;;;16.57;95.71;101160.22;2099318;28;20051;-72
2023/05/04 02:29:57;;;;;;;3.58;1.38;;;;;;;16.57;96.30;101140.66;2102026;28;20075;-73
2023/05/04 02:31:19;;;;;;;6.43;1.70;;;;;;;16.59;96.49;101147.78;2099452;28;20093;-73
2023/05/04 02:32:40;;;;;;;3.55;1.50;;;;;;;16.61;96.37;101156.66;2101840;28;20048;-73
2023/05/04 02:34:03;;;;;;;4.15;1.63;;;;;;;16.63;97.70;101159.34;2092530;28;20045;-73
2023/05/04 02:35:25;;;;;;;7.07;2.20;;;;;;;16.64;100.00;101155.78;2094007;28;20086;-73
2023/05/04 02:36:47;;;;;;;8.00;2.45;;;;;;;16.61;100.00;101159.34;2090973;28;20056;-73
2023/05/04 02:38:12;;;;;;;6.03;1.75;;;;;;;16.56;100.00;101155.78;2093690;28;20113;-73
2023/05/04 02:39:34;;;;;;;4.90;1.80;;;;;;;16.51;99.86;101165.56;2096016;28;20075;-73
2023/05/04 02:40:57;;;;;;;;;;;;;;;16.46;100.00;101169.13;2094140;28;20102;-73
2023/05/04 02:42:20;;;;;;;4.82;2.00;;;;;;;16.41;100.00;101165.59;2095461;28;19969;-73
2023/05/04 02:43:42;;;;;;;6.10;1.92;;;;;;;16.35;100.00;101164.69;2100034;28;20129;-73
2023/05/04 02:45:06;;;;;;;4.63;1.45;;;;;;;16.25;100.00;101164.72;2101953;28;20043;-73
2023/05/04 02:46:29;;;;;;;2.40;1.15;;;;;;;16.19;99.92;101172.72;2092780;28;20392;-73
2023/05/04 02:47:52;;;;;;;6.35;1.60;;;;;;;16.23;99.44;101185.13;2099786;28;20063;-73
2023/05/04 02:49:14;;;;;;;4.07;1.77;;;;;;;16.24;100.00;101179.81;2095057;28;20048;-73
2023/05/04 02:50:36;;;;;;;5.82;1.60;;;;;;;16.22;100.00;101178.03;2090236;28;20055;-73
2023/05/04 02:51:58;;;;;;;7.18;2.08;;;;;;;16.15;100.00;101163.81;2099146;28;20058;-73
2023/05/04 02:53:22;;;;;;;5.30;1.63;;;;;;;16.15;100.00;101162.94;2101364;28;20055;-73
2023/05/04 02:54:43;;;;;;;4.68;1.75;;;;;;;16.16;100.00;101154.06;2094233;28;20681;-73
2023/05/04 02:56:06;;;;;;;2.95;1.80;;;;;;;16.13;100.00;101148.75;2098813;28;20040;-73
2023/05/04 02:57:29;;;;;;;5.03;1.70;;;;;;;16.07;100.00;101157.66;2096297;28;20064;-73
2023/05/04 02:58:50;;;;;;;5.50;2.00;;;;;;;16.06;100.00;101165.63;2100837;28;20109;-73
2023/05/04 03:00:13;;;;;;;3.88;1.60;;;;;;;16.09;100.00;101170.94;2093333;28;20131;-73
2023/05/04 03:01:35;;;;;;;4.57;1.73;;;;;;;16.07;100.00;101168.28;2093732;28;20117;-73
2023/05/04 03:02:56;;;;;;;4.32;1.60;;;;;;;16.06;100.00;101170.94;2092540;28;20049;-73
2023/05/04 03:04:19;;;;;;;3.03;1.55;;;;;;;16.05;100.00;101172.72;2099587;28;20052;-73
2023/05/04 03:05:40;;;;;;;6.35;1.48;;;;;;;16.09;100.00;101174.50;2102855;28;20126;-73
2023/05/04 03:07:02;;;;;;;4.30;1.40;;;;;;;16.14;100.00;101174.50;2097438;28;20090;-73
2023/05/04 03:08:28;;;;;;;4.13;1.60;;;;;;;16.15;100.00;101181.59;2091103;28;20057;-73
2023/05/04 03:09:49;;;;;;;3.90;1.40;;;;;;;16.11;100.00;101182.47;2101594;28;20077;-73
2023/05/04 03:11:12;;;;;;;4.25;1.58;;;;;;;16.12;100.00;101193.16;2103490;28;20040;-73
2023/05/04 03:12:34;;;;;;;5.30;1.42;;;;;;;16.14;100.00;101202.03;2095083;28;20142;-73
2023/05/04 03:13:56;;;;;;;5.68;1.35;;;;;;;16.18;100.00;101203.78;2100537;28;20582;-73
2023/05/04 03:15:18;;;;;;;3.40;1.48;;;;;;;16.23;100.00;101193.13;2095071;28;20036;-73
2023/05/04 03:16:40;;;;;;;3.70;1.33;;;;;;;16.28;100.00;101199.34;2088022;28;20049;-73
2023/05/04 03:18:02;;;;;;;5.38;2.05;;;;;;;16.33;100.00;101195.81;2088507;28;20133;-73
2023/05/04 03:19:23;;;;;;;4.72;1.50;;;;;;;16.37;100.00;101193.13;2099860;28;20072;-72
2023/05/04 03:20:46;;;;;;;2.50;1.40;;;;;;;16.38;100.00;101194.91;2098616;28;20052;-73
2023/05/04 03:22:12;;;;;;;7.78;1.40;;;;;;;16.40;100.00;101209.13;2095244;28;20409;-73
2023/05/04 03:23:35;;;;;;;4.65;1.70;;;;;;;16.40;100.00;101199.34;2089707;28;20094;-73
2023/05/04 03:24:58;;;;;;;4.05;1.60;;;;;;;16.39;100.00;101194.91;2088172;28;20496;-73
2023/05/04 03:26:20;;;;;;;3.40;1.63;;;;;;;16.38;100.00;101200.22;2095003;28;20048;-73
2023/05/04 03:27:42;;;;;;;7.38;1.85;;;;;;;16.38;100.00;101200.22;2091716;28;20083;-74
2023/05/04 03:29:04;;;;;;;4.07;1.65;;;;;;;16.38;100.00;101195.78;2092179;28;20040;-73
2023/05/04 03:30:26;;;;;;;4.03;2.25;;;;;;;16.38;100.00;101190.47;2100744;28;20078;-73
2023/05/04 03:31:52;;;;;;;3.60;1.83;;;;;;;16.41;100.00;101197.56;2095287;28;20493;-73
2023/05/04 03:33:14;;;;;;;6.22;2.03;;;;;;;16.39;100.00;101194.91;2091316;28;20052;-73
2023/05/04 03:34:36;;;;;;;4.80;1.88;;;;;;;16.39;100.00;101197.56;2091921;28;20048;-73
2023/05/04 03:36:00;;;;;;;3.70;1.88;;;;;;;16.37;100.00;101187.78;2086580;28;20045;-74
2023/05/04 03:37:23;;;;;;;4.65;1.70;;;;;;;16.32;100.00;101180.69;2092082;28;20048;-74
2023/05/04 03:38:46;;;;;;;6.38;1.75;;;;;;;16.30;100.00;101181.59;2086683;28;20041;-74
2023/05/04 03:40:09;;;;;;;6.22;2.10;;;;;;;16.26;100.00;101185.16;2089208;28;20051;-73
2023/05/04 03:41:31;;;;;;;6.63;1.90;;;;;;;16.21;100.00;101190.47;2099221;28;20508;-73
2023/05/04 03:42:54;;;;;;;5.18;1.80;;;;;;;16.15;100.00;101194.91;2094919;28;20055;-73
2023/05/04 03:44:18;;;;;;;4.75;1.77;;;;;;;16.11;100.00;101195.81;2100737;28;20056;-72
2023/05/04 03:45:39;;;;;;;3.80;1.65;;;;;;;16.10;100.00;101205.56;2103176;28;20055;-74
2023/05/04 03:47:01;;;;;;;4.38;1.88;;;;;;;16.13;100.00;101204.69;2102754;28;20044;-74
2023/05/04 03:48:24;;;;;;;4.25;2.17;;;;;;;16.15;100.00;101210.88;2094744;28;20587;-73
2023/05/04 03:49:47;;;;;;;5.20;1.80;;;;;;;16.16;100.00;101213.56;2086262;28;20061;-74
2023/05/04 03:51:10;;;;;;;5.35;2.00;;;;;;;16.10;100.00;101221.56;2091261;28;20041;-74
2023/05/04 03:52:31;;;;;;;8.35;1.77;;;;;;;16.03;100.00;101221.53;2090509;28;20139;-74
2023/05/04 03:53:55;;;;;;;5.90;1.90;;;;;;;16.02;100.00;101219.75;2086615;28;20126;-74
2023/05/04 03:55:17;;;;;;;7.50;2.00;;;;;;;16.09;100.00;101232.19;2096335;28;20079;-74
2023/05/04 03:56:44;;;;;;;3.13;1.50;;;;;;;16.19;100.00;101231.31;2099393;28;20504;-73
2023/05/04 03:58:11;;;;;;;7.15;2.00;;;;;;;16.27;100.00;101227.78;2095354;28;20048;-73
2023/05/04 03:59:33;;;;;;;7.22;1.80;;;;;;;16.35;100.00;101228.66;2092335;28;20063;-73
2023/05/04 04:00:58;;;;;;;5.40;1.67;;;;;;;16.38;100.00;101225.09;2091396;28;20048;-73
2023/05/04 04:02:20;;;;;;;4.05;1.70;;;;;;;16.39;100.00;101232.22;2099079;28;20063;-73
2023/05/04 04:03:42;;;;;;;4.95;1.80;;;;;;;16.42;100.00;101228.63;2094599;28;20094;-73
2023/05/04 04:05:06;;;;;;;5.20;1.90;;;;;;;16.44;100.00;101233.09;2100699;28;20127;-73
2023/05/04 04:06:28;;;;;;;4.30;1.83;;;;;;;16.46;100.00;101231.31;2092519;28;20051;-73
2023/05/04 04:07:50;;;;;;;4.55;1.80;;;;;;;16.51;100.00;101226.88;2091322;28;20044;-73
2023/05/04 04:09:14;;;;;;;3.80;1.63;;;;;;;16.57;100.00;101228.63;2092021;28;20070;-73
2023/05/04 04:10:36;;;;;;;4.43;1.73;;;;;;;16.62;100.00;101224.22;2094755;28;20048;-73
2023/05/04 04:11:58;;;;;;;4.85;1.90;;;;;;;16.66;100.00;101221.56;2091127;28;20094;-72
2023/05/04 04:13:19;;;;;;;2.83;1.80;;;;;;;16.67;100.00;101220.63;2092118;28;20051;-72
2023/05/04 04:14:42;;;;;;;3.88;1.73;;;;;;;16.68;100.00;101213.53;2099371;28;20404;-72
2023/05/04 04:16:05;;;;;;;4.93;1.65;;;;;;;16.76;100.00;101227.75;2093795;28;20044;-72
2023/05/04 04:17:27;;;;;;;7.45;1.80;;;;;;;16.91;100.00;101218.81;2091873;28;20068;-73
2023/05/04 04:18:50;;;;;;;3.20;1.50;;;;;;;17.09;100.00;101218.75;2096385;28;20040;-72
2023/05/04 04:20:13;;;;;;;6.53;1.92;;;;;;;17.28;100.00;101232.91;2103061;28;20143;-72
2023/05/04 04:21:35;;;;;;;5.80;1.60;;;;;;;17.42;100.00;101239.06;2100585;28;20040;-72
2023/05/04 04:22:57;;;;;;;3.47;1.20;;;;;;;17.53;100.00;101256.81;2093519;28;20063;-73
2023/05/04 04:24:21;;;;;;;4.30;1.25;;;;;;;17.64;100.00;101267.47;2092004;28;20410;-73
2023/05/04 04:25:43;;;;;;;4.57;1.73;;;;;;;17.72;100.00;101276.31;2097124;28;20052;-73
2023/05/04 04:27:05;;;;;;;5.50;1.75;;;;;;;17.81;100.00;101283.41;2102981;28;20047;-73
2023/05/04 04:28:29;;;;;;;6.07;1.92;;;;;;;17.87;100.00;101292.25;2097250;28;20067;-73
2023/05/04 04:29:50;;;;;;;5.15;1.60;;;;;;;17.90;100.00;101294.94;2102693;28;20036;-73
2023/05/04 04:31:12;;;;;;;3.70;1.60;;;;;;;17.98;100.00;101308.25;2105351;28;20055;-73
2023/05/04 04:32:36;;;;;;;2.80;1.50;;;;;;;18.07;100.00;101299.25;2092507;28;20086;-73
2023/05/04 04:33:58;;;;;;;3.75;1.90;;;;;;;18.12;100.00;101310.81;2102947;28;20051;-73
2023/05/04 04:35:21;;;;;;;4.28;2.00;;;;;;;18.14;100.00;101307.25;2101522;28;20412;-74
2023/05/04 04:36:43;;;;;;;3.85;1.73;;;;;;;18.14;100.00;101306.34;2101761;28;20523;-73
2023/05/04 04:38:06;;;;;;;3.30;1.73;;;;;;;18.13;100.00;101318.81;2100560;28;20086;-73
2023/05/04 04:39:30;;;;;;;3.20;1.80;;;;;;;18.12;100.00;101313.47;2102886;28;20120;-73
2023/05/04 04:40:52;;;;;;;6.47;1.95;;;;;;;18.10;100.00;101307.28;2101930;28;20077;-73
2023/05/04 04:42:13;;;;;;;7.43;2.10;;;;;;;18.08;100.00;101303.72;2093998;28;20378;-73
2023/05/04 04:43:35;;;;;;;6.15;2.20;;;;;;;18.06;100.00;101305.50;2100858;28;20043;-73
2023/05/04 04:44:58;;;;;;;5.15;1.98;;;;;;;18.04;100.00;101305.53;2102315;28;20048;-73
2023/05/04 04:46:20;;;;;;;4.93;1.50;;;;;;;18.02;100.00;101323.34;2101540;28;20072;-73
2023/05/04 04:47:41;;;;;;;7.40;2.10;;;;;;;17.97;100.00;101314.47;2102791;28;20522;-73
2023/05/04 04:49:03;;;;;;;4.13;1.75;;;;;;;17.93;100.00;101318.03;2096476;28;20048;-73
2023/05/04 04:50:25;;;;;;;6.32;2.10;;;;;;;17.91;100.00;101325.22;2094282;28;20060;-72
2023/05/04 04:51:47;;;;;;;5.32;2.22;;;;;;;17.85;100.00;101320.75;2098178;28;20563;-73
2023/05/04 04:53:10;;;;;;;5.35;2.40;;;;;;;17.84;100.00;101318.13;2095240;28;20087;-73
2023/05/04 04:54:35;;;;;;;6.68;1.95;;;;;;;17.84;100.00;101328.81;2100185;28;20516;-73
2023/05/04 04:55:57;;;;;;;5.00;2.28;;;;;;;17.83;100.00;101329.69;2089364;28;20041;-73
2023/05/04 04:57:18;;;;;;;6.30;2.28;;;;;;;17.81;100.00;101334.16;2094735;28;20071;-73
2023/05/04 04:58:42;;;;;;;6.85;2.13;;;;;;;17.79;100.00;101335.94;2097709;28;20049;-73
2023/05/04 05:00:08;;;;;;;5.20;1.80;;;;;;;17.77;100.00;101330.63;2098348;28;20052;-73
2023/05/04 05:01:32;;;;;;;4.07;1.55;;;;;;;17.76;100.00;101327.94;2102980;28;20522;-73
2023/05/04 05:02:54;;;;;;;6.78;1.70;;;;;;;17.75;100.00;101320.81;2088687;28;20076;-73
2023/05/04 05:04:17;;;;;;;3.72;1.60;;;;;;;17.74;100.00;101316.38;2102049;28;20500;-73
2023/05/04 05:05:40;;;;;;;6.30;2.25;;;;;;;17.74;100.00;101305.69;2102942;28;20139;-73
2023/05/04 05:07:01;;;;;;;6.05;1.77;;;;;;;17.75;100.00;101302.13;2105641;28;20064;-73
2023/05/04 05:08:24;;;;;;;9.90;2.97;;;;;;;17.74;100.00;101298.56;2089513;28;20073;-74
2023/05/04 05:09:46;;;;;;;6.85;2.38;;;;;;;17.71;100.00;101298.59;2097008;28;20036;-72
2023/05/04 05:11:09;;;;;;;8.63;2.42;;;;;;;17.57;100.00;101294.19;2102468;28;20044;-71
2023/05/04 05:12:31;;;;;;;10.20;3.53;;;;;;;17.40;100.00;101300.47;2102535;28;20602;-72
2023/05/04 05:13:53;;;;;;;8.57;2.80;;;;;;;17.22;100.00;101308.53;2102169;28;20388;-72
2023/05/04 05:15:16;;;;;;;9.30;3.13;;;;;;;17.04;100.00;101298.81;2103987;28;20118;-73
2023/05/04 05:16:37;;;;;;;8.27;3.28;;;;;;;16.88;100.00;101296.16;2094232;28;20041;-72
2023/05/04 05:18:00;;;;;;;7.47;3.15;;;;;;;16.80;100.00;101284.63;2095734;28;20047;-73
2023/05/04 05:19:22;;;;;;;7.45;3.03;;;;;;;16.78;100.00;101259.75;2111094;28;20043;-72
2023/05/04 05:20:45;;;;;;;6.68;2.97;;;;;;;16.86;100.00;101226.84;2096428;28;20048;-72
2023/05/04 05:22:07;;;;;;;7.07;2.70;;;;;;;17.04;100.00;101216.09;2091381;28;20468;-72
2023/05/04 05:23:30;;;;;;;8.20;3.22;;;;;;;17.26;100.00;101222.25;2099839;28;20048;-73
2023/05/04 05:24:54;;;;;;;7.22;3.25;;;;;;;17.47;100.00;101221.25;2102386;28;20047;-72
2023/05/04 05:26:16;;;;;;;8.30;2.50;;;;;;;17.73;100.00;101207.75;2102501;28;20798;-72
2023/05/04 05:27:39;;;;;;;6.43;2.38;;;;;;;17.99;100.00;101204.91;2098788;28;20052;-72
2023/05/04 05:29:01;;;;;;;6.43;2.60;;;;;;;18.24;100.00;101214.53;2104947;28;20048;-72
2023/05/04 05:30:23;;;;;;;6.93;2.85;;;;;;;18.48;100.00;101224.09;2102294;28;20143;-72
2023/05/04 05:31:46;;;;;;;6.93;3.22;;;;;;;18.59;100.00;101239.16;2102343;28;20520;-73
2023/05/04 05:33:09;;;;;;;9.13;3.33;;;;;;;18.78;100.00;101247.91;2093608;28;20048;-73
2023/05/04 05:34:31;;;;;;;5.95;2.78;;;;;;;18.85;100.00;101252.28;2101901;28;20060;-73
2023/05/04 05:35:54;;;;;;;5.82;2.55;;;;;;;18.80;100.00;101256.81;2096552;28;20055;-73
2023/05/04 05:37:16;;;;;;;6.30;2.80;;;;;;;18.72;100.00;101266.69;2093458;28;20063;-73
2023/05/04 05:38:38;;;;;;;6.22;2.40;;;;;;;18.61;100.00;101265.91;2094979;28;20501;-73
2023/05/04 05:40:05;;;;;;;8.27;2.65;;;;;;;18.51;100.00;101277.56;2109722;28;20047;-73
2023/05/04 05:41:27;;;;;;;12.75;3.95;;;;;;;18.32;100.00;101275.03;2096242;28;20466;-72
2023/05/04 05:42:50;;;;;;;7.30;2.88;;;;;;;18.07;100.00;101269.88;2100278;28;20444;-72
2023/05/04 05:44:11;;;;;;;8.77;3.13;;;;;;;17.90;100.00;101264.66;2105567;28;20040;-72
2023/05/04 05:45:33;;;;;;;9.35;3.72;;;;;;;17.82;100.00;101262.03;2104681;28;20105;-73
2023/05/04 05:46:56;;;;;;;9.02;3.45;;;;;;;17.81;100.00;101256.69;2104991;28;20047;-72
2023/05/04 05:48:18;;;;;;;6.90;3.05;;;;;;;17.81;100.00;101248.66;2099831;28;20040;-74
2023/05/04 05:49:40;;;;;;;5.82;3.13;;;;;;;17.78;100.00;101222.00;2091980;28;20041;-72
2023/05/04 05:51:03;;;;;;;9.35;3.28;;;;;;;17.77;100.00;101218.44;2098852;28;20043;-72
2023/05/04 05:52:25;;;;;;;6.10;2.72;;;;;;;17.80;100.00;101226.41;2108744;28;20036;-72
2023/05/04 05:53:48;;;;;;;10.23;3.53;;;;;;;17.81;100.00;101224.63;2099668;28;20483;-73
2023/05/04 05:55:11;;;;;;;7.47;3.65;;;;;;;17.80;100.00;101231.75;2102895;28;20048;-72
2023/05/04 05:56:33;;;;;;;9.80;3.83;;;;;;;17.82;100.00;101229.09;2096414;28;20504;-72
2023/05/04 05:57:56;;;;;;;10.43;4.40;;;;;;;17.88;100.00;101231.72;2092740;28;20040;-72
2023/05/04 05:59:18;;;;;;;10.27;4.18;;;;;;;17.95;100.00;101241.47;2093836;28;20075;-72
2023/05/04 06:00:41;;;;;;;8.35;4.43;;;;;;;18.08;100.00;101235.13;2093985;28;20036;-72
2023/05/04 06:02:02;;;;;;;7.68;4.65;;;;;;;18.34;100.00;101229.56;2095943;28;20138;-73
2023/05/04 06:03:24;;;;;;;10.90;4.65;;;;;;;18.56;100.00;101231.19;2093320;28;20435;-72
2023/05/04 06:04:46;;;;;;;8.32;3.47;;;;;;;18.89;100.00;101246.00;2093993;28;20527;-72
2023/05/04 06:06:09;;;;;;;7.00;2.90;;;;;;;19.06;100.00;101254.72;2093685;28;20045;-73
2023/05/04 06:07:31;;;;;;;6.75;2.20;;;;;;;19.16;100.00;101260.00;2093924;28;20056;-72
2023/05/04 06:08:53;;;;;;;6.43;2.58;;;;;;;19.28;100.00;101263.41;2093950;28;20082;-73
2023/05/04 06:10:17;;;;;;;3.88;2.20;;;;;;;19.36;100.00;101252.59;2093473;28;20292;-73
2023/05/04 06:11:40;;;;;;;4.85;2.33;;;;;;;19.32;100.00;101241.03;2095591;28;20052;-73
2023/05/04 06:13:02;;;;;;;5.28;2.40;;;;;;;19.26;100.00;101250.94;2095774;28;20106;-73
2023/05/04 06:14:24;;;;;;;7.05;2.22;;;;;;;19.17;100.00;101234.97;2101986;28;20055;-73
2023/05/04 06:15:54;;;;;;;5.93;2.28;;;;;;;19.03;100.00;101227.13;2103981;28;20113;-73
2023/05/04 06:17:17;;;;;;;5.45;2.13;;;;;;;18.89;100.00;101207.66;2102508;28;20397;-73
2023/05/04 06:18:38;;;;;;;2.88;2.03;;;;;;;18.78;100.00;101201.53;2096360;28;20524;-72
2023/05/04 06:20:01;;;;;;;3.13;1.73;;;;;;;18.70;99.39;101191.81;2093828;28;20706;-72
2023/05/04 06:21:22;;;;;;;14.63;1.85;;;;;;;18.66;89.80;101190.06;2101390;28;20052;-72